sensor_id;sensor_type;location;lat;lon;timestamp;P1;durP1;ratioP1;P2;durP2;ratioP2
29452;SDS011;16424;50.956;5.320;2023-09-18T00:00:45;9.43;;;5.60;;
29452;SDS011;16424;50.956;5.320;2023-09-18T00:03:15;9.15;;;5.28;;
29452;SDS011;16424;50.956;5.320;2023-09-18T00:05:43;15.57;;;5.57;;
29452;SDS011;16424;50.956;5.320;2023-09-18T00:08:08;14.35;;;6.70;;
29452;SDS011;16424;50.956;5.320;2023-09-18T00:10:34;12.02;;;5.82;;
29452;SDS011;16424;50.956;5.320;2023-09-18T00:13:00;21.42;;;6.00;;
29452;SDS011;16424;50.956;5.320;2023-09-18T00:15:26;11.40;;;6.07;;
29452;SDS011;16424;50.956;5.320;2023-09-18T00:17:52;13.98;;;7.00;;
29452;SDS011;16424;50.956;5.320;2023-09-18T00:20:17;10.90;;;5.72;;
29452;SDS011;16424;50.956;5.320;2023-09-18T00:22:43;15.57;;;6.45;;
29452;SDS011;16424;50.956;5.320;2023-09-18T00:25:09;14.98;;;6.18;;
29452;SDS011;16424;50.956;5.320;2023-09-18T00:27:35;12.63;;;6.07;;
29452;SDS011;16424;50.956;5.320;2023-09-18T00:30:04;10.63;;;5.38;;
29452;SDS011;16424;50.956;5.320;2023-09-18T00:32:31;11.02;;;5.82;;
29452;SDS011;16424;50.956;5.320;2023-09-18T00:34:57;13.50;;;6.05;;
29452;SDS011;16424;50.956;5.320;2023-09-18T00:37:22;11.43;;;5.97;;
29452;SDS011;16424;50.956;5.320;2023-09-18T00:39:49;13.02;;;6.25;;
29452;SDS011;16424;50.956;5.320;2023-09-18T00:42:15;12.80;;;5.97;;
29452;SDS011;16424;50.956;5.320;2023-09-18T00:44:43;11.35;;;6.45;;
29452;SDS011;16424;50.956;5.320;2023-09-18T00:47:10;10.07;;;6.72;;
29452;SDS011;16424;50.956;5.320;2023-09-18T00:49:38;14.90;;;6.03;;
29452;SDS011;16424;50.956;5.320;2023-09-18T00:52:07;18.45;;;6.32;;
29452;SDS011;16424;50.956;5.320;2023-09-18T00:54:33;18.70;;;6.60;;
29452;SDS011;16424;50.956;5.320;2023-09-18T00:57:01;19.70;;;7.47;;
29452;SDS011;16424;50.956;5.320;2023-09-18T00:59:27;15.40;;;6.55;;
29452;SDS011;16424;50.956;5.320;2023-09-18T01:01:53;10.80;;;6.40;;
29452;SDS011;16424;50.956;5.320;2023-09-18T01:04:19;12.40;;;5.57;;
29452;SDS011;16424;50.956;5.320;2023-09-18T01:06:46;17.92;;;6.28;;
29452;SDS011;16424;50.956;5.320;2023-09-18T01:09:12;16.65;;;7.40;;
29452;SDS011;16424;50.956;5.320;2023-09-18T01:14:26;12.57;;;7.00;;
29452;SDS011;16424;50.956;5.320;2023-09-18T01:16:59;13.05;;;6.60;;
29452;SDS011;16424;50.956;5.320;2023-09-18T01:19:38;13.50;;;6.10;;
29452;SDS011;16424;50.956;5.320;2023-09-18T01:22:15;15.00;;;6.25;;
29452;SDS011;16424;50.956;5.320;2023-09-18T01:24:43;15.95;;;6.00;;
29452;SDS011;16424;50.956;5.320;2023-09-18T01:27:13;12.02;;;6.32;;
29452;SDS011;16424;50.956;5.320;2023-09-18T01:29:46;12.13;;;6.10;;
29452;SDS011;16424;50.956;5.320;2023-09-18T01:32:12;14.23;;;6.00;;
29452;SDS011;16424;50.956;5.320;2023-09-18T01:34:48;15.52;;;5.95;;
29452;SDS011;16424;50.956;5.320;2023-09-18T01:37:17;16.42;;;5.47;;
29452;SDS011;16424;50.956;5.320;2023-09-18T01:39:51;13.80;;;5.10;;
29452;SDS011;16424;50.956;5.320;2023-09-18T01:42:18;12.18;;;5.10;;
29452;SDS011;16424;50.956;5.320;2023-09-18T01:44:46;8.85;;;4.93;;
29452;SDS011;16424;50.956;5.320;2023-09-18T01:47:13;10.35;;;5.15;;
29452;SDS011;16424;50.956;5.320;2023-09-18T01:49:41;14.77;;;5.80;;
29452;SDS011;16424;50.956;5.320;2023-09-18T01:52:07;11.80;;;4.68;;
29452;SDS011;16424;50.956;5.320;2023-09-18T01:54:34;10.40;;;4.93;;
29452;SDS011;16424;50.956;5.320;2023-09-18T01:57:00;12.95;;;5.07;;
29452;SDS011;16424;50.956;5.320;2023-09-18T01:59:27;16.90;;;5.32;;
29452;SDS011;16424;50.956;5.320;2023-09-18T02:01:53;9.25;;;4.32;;
29452;SDS011;16424;50.956;5.320;2023-09-18T02:04:20;15.68;;;5.32;;
29452;SDS011;16424;50.956;5.320;2023-09-18T02:06:46;15.45;;;4.82;;
29452;SDS011;16424;50.956;5.320;2023-09-18T02:09:13;18.90;;;3.70;;
29452;SDS011;16424;50.956;5.320;2023-09-18T02:11:39;9.90;;;4.38;;
29452;SDS011;16424;50.956;5.320;2023-09-18T02:14:06;13.35;;;4.20;;
29452;SDS011;16424;50.956;5.320;2023-09-18T02:16:33;12.90;;;4.20;;
29452;SDS011;16424;50.956;5.320;2023-09-18T02:18:59;15.00;;;4.88;;
29452;SDS011;16424;50.956;5.320;2023-09-18T02:21:25;11.52;;;3.83;;
29452;SDS011;16424;50.956;5.320;2023-09-18T02:23:51;10.52;;;3.80;;
29452;SDS011;16424;50.956;5.320;2023-09-18T02:26:21;9.02;;;3.97;;
29452;SDS011;16424;50.956;5.320;2023-09-18T02:28:48;10.02;;;3.97;;
29452;SDS011;16424;50.956;5.320;2023-09-18T02:31:14;14.07;;;4.10;;
29452;SDS011;16424;50.956;5.320;2023-09-18T02:33:41;11.98;;;4.30;;
29452;SDS011;16424;50.956;5.320;2023-09-18T02:36:08;6.80;;;3.85;;
29452;SDS011;16424;50.956;5.320;2023-09-18T02:38:33;12.80;;;3.47;;
29452;SDS011;16424;50.956;5.320;2023-09-18T02:40:59;7.72;;;3.13;;
29452;SDS011;16424;50.956;5.320;2023-09-18T02:43:26;7.85;;;3.08;;
29452;SDS011;16424;50.956;5.320;2023-09-18T02:45:52;6.47;;;3.05;;
29452;SDS011;16424;50.956;5.320;2023-09-18T02:48:18;15.27;;;4.15;;
29452;SDS011;16424;50.956;5.320;2023-09-18T02:50:44;8.75;;;3.33;;
29452;SDS011;16424;50.956;5.320;2023-09-18T02:55:49;7.40;;;2.85;;
29452;SDS011;16424;50.956;5.320;2023-09-18T02:58:16;10.23;;;3.50;;
29452;SDS011;16424;50.956;5.320;2023-09-18T03:00:43;11.02;;;3.40;;
29452;SDS011;16424;50.956;5.320;2023-09-18T03:03:09;5.90;;;2.50;;
29452;SDS011;16424;50.956;5.320;2023-09-18T03:05:36;10.70;;;2.20;;
29452;SDS011;16424;50.956;5.320;2023-09-18T03:08:02;8.65;;;2.40;;
29452;SDS011;16424;50.956;5.320;2023-09-18T03:10:28;8.82;;;3.10;;
29452;SDS011;16424;50.956;5.320;2023-09-18T03:13:03;8.90;;;2.70;;
29452;SDS011;16424;50.956;5.320;2023-09-18T03:15:29;3.88;;;2.10;;
29452;SDS011;16424;50.956;5.320;2023-09-18T03:17:55;4.25;;;2.58;;
29452;SDS011;16424;50.956;5.320;2023-09-18T03:20:26;6.35;;;2.75;;
29452;SDS011;16424;50.956;5.320;2023-09-18T03:22:53;6.65;;;2.20;;
29452;SDS011;16424;50.956;5.320;2023-09-18T03:25:21;3.88;;;1.85;;
29452;SDS011;16424;50.956;5.320;2023-09-18T03:27:51;4.55;;;2.75;;
29452;SDS011;16424;50.956;5.320;2023-09-18T03:30:18;4.00;;;1.90;;
29452;SDS011;16424;50.956;5.320;2023-09-18T03:32:44;6.45;;;2.38;;
29452;SDS011;16424;50.956;5.320;2023-09-18T03:35:13;8.50;;;2.20;;
29452;SDS011;16424;50.956;5.320;2023-09-18T03:37:45;9.20;;;2.00;;
29452;SDS011;16424;50.956;5.320;2023-09-18T03:40:11;4.53;;;2.10;;
29452;SDS011;16424;50.956;5.320;2023-09-18T03:42:39;4.05;;;2.08;;
29452;SDS011;16424;50.956;5.320;2023-09-18T03:45:05;5.75;;;2.08;;
29452;SDS011;16424;50.956;5.320;2023-09-18T03:47:33;7.82;;;2.22;;
29452;SDS011;16424;50.956;5.320;2023-09-18T03:50:01;8.05;;;2.58;;
29452;SDS011;16424;50.956;5.320;2023-09-18T03:52:29;6.90;;;2.15;;
29452;SDS011;16424;50.956;5.320;2023-09-18T03:54:55;5.93;;;2.22;;
29452;SDS011;16424;50.956;5.320;2023-09-18T03:57:21;6.18;;;1.92;;
29452;SDS011;16424;50.956;5.320;2023-09-18T03:59:46;4.90;;;2.58;;
29452;SDS011;16424;50.956;5.320;2023-09-18T04:02:12;4.28;;;1.88;;
29452;SDS011;16424;50.956;5.320;2023-09-18T04:04:38;9.75;;;2.60;;
29452;SDS011;16424;50.956;5.320;2023-09-18T04:07:06;4.75;;;2.05;;
29452;SDS011;16424;50.956;5.320;2023-09-18T04:09:32;9.02;;;2.85;;
29452;SDS011;16424;50.956;5.320;2023-09-18T04:12:01;7.70;;;2.75;;
29452;SDS011;16424;50.956;5.320;2023-09-18T04:14:27;6.30;;;2.67;;
29452;SDS011;16424;50.956;5.320;2023-09-18T04:16:53;7.30;;;2.50;;
29452;SDS011;16424;50.956;5.320;2023-09-18T04:19:19;3.75;;;1.83;;
29452;SDS011;16424;50.956;5.320;2023-09-18T04:21:44;5.00;;;2.03;;
29452;SDS011;16424;50.956;5.320;2023-09-18T04:24:10;3.55;;;2.30;;
29452;SDS011;16424;50.956;5.320;2023-09-18T04:26:35;4.68;;;1.95;;
29452;SDS011;16424;50.956;5.320;2023-09-18T04:29:03;3.78;;;2.13;;
29452;SDS011;16424;50.956;5.320;2023-09-18T04:31:28;5.55;;;2.20;;
29452;SDS011;16424;50.956;5.320;2023-09-18T04:33:55;4.60;;;2.10;;
29452;SDS011;16424;50.956;5.320;2023-09-18T04:36:20;4.32;;;2.03;;
29452;SDS011;16424;50.956;5.320;2023-09-18T04:38:46;4.57;;;2.40;;
29452;SDS011;16424;50.956;5.320;2023-09-18T04:41:13;6.45;;;1.98;;
29452;SDS011;16424;50.956;5.320;2023-09-18T04:43:39;2.65;;;1.70;;
29452;SDS011;16424;50.956;5.320;2023-09-18T04:46:05;3.38;;;2.03;;
29452;SDS011;16424;50.956;5.320;2023-09-18T04:48:31;4.18;;;2.10;;
29452;SDS011;16424;50.956;5.320;2023-09-18T04:50:58;6.45;;;2.10;;
29452;SDS011;16424;50.956;5.320;2023-09-18T04:53:24;5.50;;;1.85;;
29452;SDS011;16424;50.956;5.320;2023-09-18T04:55:50;3.88;;;1.73;;
29452;SDS011;16424;50.956;5.320;2023-09-18T04:58:16;6.70;;;1.85;;
29452;SDS011;16424;50.956;5.320;2023-09-18T05:00:42;5.00;;;1.83;;
29452;SDS011;16424;50.956;5.320;2023-09-18T05:03:09;4.20;;;1.77;;
29452;SDS011;16424;50.956;5.320;2023-09-18T05:05:35;6.13;;;1.55;;
29452;SDS011;16424;50.956;5.320;2023-09-18T05:08:02;6.00;;;2.00;;
29452;SDS011;16424;50.956;5.320;2023-09-18T05:10:32;5.60;;;1.90;;
29452;SDS011;16424;50.956;5.320;2023-09-18T05:12:58;2.45;;;1.52;;
29452;SDS011;16424;50.956;5.320;2023-09-18T05:15:24;4.30;;;1.60;;
29452;SDS011;16424;50.956;5.320;2023-09-18T05:17:56;5.18;;;2.00;;
29452;SDS011;16424;50.956;5.320;2023-09-18T05:20:27;8.50;;;2.58;;
29452;SDS011;16424;50.956;5.320;2023-09-18T05:22:54;5.68;;;1.50;;
29452;SDS011;16424;50.956;5.320;2023-09-18T05:25:28;4.50;;;1.50;;
29452;SDS011;16424;50.956;5.320;2023-09-18T05:27:57;4.72;;;1.58;;
29452;SDS011;16424;50.956;5.320;2023-09-18T05:30:34;4.30;;;1.50;;
29452;SDS011;16424;50.956;5.320;2023-09-18T05:33:03;5.15;;;1.77;;
29452;SDS011;16424;50.956;5.320;2023-09-18T05:35:40;5.22;;;1.60;;
29452;SDS011;16424;50.956;5.320;2023-09-18T05:38:07;6.35;;;1.50;;
29452;SDS011;16424;50.956;5.320;2023-09-18T05:40:34;6.25;;;1.77;;
29452;SDS011;16424;50.956;5.320;2023-09-18T05:43:00;9.93;;;1.98;;
29452;SDS011;16424;50.956;5.320;2023-09-18T05:45:26;3.78;;;1.40;;
29452;SDS011;16424;50.956;5.320;2023-09-18T05:47:52;3.53;;;1.70;;
29452;SDS011;16424;50.956;5.320;2023-09-18T05:50:30;3.55;;;1.80;;
29452;SDS011;16424;50.956;5.320;2023-09-18T05:52:57;1.83;;;1.10;;
29452;SDS011;16424;50.956;5.320;2023-09-18T05:55:29;7.78;;;1.95;;
29452;SDS011;16424;50.956;5.320;2023-09-18T05:58:04;7.63;;;1.90;;
29452;SDS011;16424;50.956;5.320;2023-09-18T06:00:32;6.55;;;1.50;;
29452;SDS011;16424;50.956;5.320;2023-09-18T06:02:58;5.22;;;1.58;;
29452;SDS011;16424;50.956;5.320;2023-09-18T06:05:24;3.28;;;1.60;;
29452;SDS011;16424;50.956;5.320;2023-09-18T06:07:50;7.13;;;1.67;;
29452;SDS011;16424;50.956;5.320;2023-09-18T06:10:16;3.47;;;1.40;;
29452;SDS011;16424;50.956;5.320;2023-09-18T06:12:43;7.57;;;1.60;;
29452;SDS011;16424;50.956;5.320;2023-09-18T06:15:10;2.55;;;1.58;;
29452;SDS011;16424;50.956;5.320;2023-09-18T06:17:39;4.47;;;1.45;;
29452;SDS011;16424;50.956;5.320;2023-09-18T06:20:07;9.43;;;2.28;;
29452;SDS011;16424;50.956;5.320;2023-09-18T06:22:40;6.70;;;1.30;;
29452;SDS011;16424;50.956;5.320;2023-09-18T06:25:06;2.35;;;1.30;;
29452;SDS011;16424;50.956;5.320;2023-09-18T06:27:35;3.17;;;1.17;;
29452;SDS011;16424;50.956;5.320;2023-09-18T06:30:02;5.13;;;1.42;;
29452;SDS011;16424;50.956;5.320;2023-09-18T06:32:28;3.05;;;1.33;;
29452;SDS011;16424;50.956;5.320;2023-09-18T06:34:54;5.63;;;1.42;;
29452;SDS011;16424;50.956;5.320;2023-09-18T06:37:22;5.28;;;1.27;;
29452;SDS011;16424;50.956;5.320;2023-09-18T06:39:48;4.78;;;1.33;;
29452;SDS011;16424;50.956;5.320;2023-09-18T06:42:14;3.67;;;1.10;;
29452;SDS011;16424;50.956;5.320;2023-09-18T06:44:39;5.00;;;1.42;;
29452;SDS011;16424;50.956;5.320;2023-09-18T06:47:06;3.35;;;1.65;;
29452;SDS011;16424;50.956;5.320;2023-09-18T06:49:32;5.75;;;1.40;;
29452;SDS011;16424;50.956;5.320;2023-09-18T06:51:57;2.45;;;1.20;;
29452;SDS011;16424;50.956;5.320;2023-09-18T06:54:23;4.60;;;1.40;;
29452;SDS011;16424;50.956;5.320;2023-09-18T06:56:49;4.80;;;1.35;;
29452;SDS011;16424;50.956;5.320;2023-09-18T06:59:15;1.75;;;1.25;;
29452;SDS011;16424;50.956;5.320;2023-09-18T07:01:41;5.40;;;1.30;;
29452;SDS011;16424;50.956;5.320;2023-09-18T07:04:07;1.20;;;0.95;;
29452;SDS011;16424;50.956;5.320;2023-09-18T07:06:33;4.38;;;1.48;;
29452;SDS011;16424;50.956;5.320;2023-09-18T07:08:59;1.80;;;1.48;;
29452;SDS011;16424;50.956;5.320;2023-09-18T07:11:24;4.90;;;1.38;;
29452;SDS011;16424;50.956;5.320;2023-09-18T07:13:50;6.47;;;1.75;;
29452;SDS011;16424;50.956;5.320;2023-09-18T07:16:16;4.95;;;1.10;;
29452;SDS011;16424;50.956;5.320;2023-09-18T07:18:42;5.03;;;1.30;;
29452;SDS011;16424;50.956;5.320;2023-09-18T07:21:08;4.32;;;1.10;;
29452;SDS011;16424;50.956;5.320;2023-09-18T07:23:33;4.18;;;1.35;;
29452;SDS011;16424;50.956;5.320;2023-09-18T07:26:02;3.55;;;1.30;;
29452;SDS011;16424;50.956;5.320;2023-09-18T07:28:28;4.88;;;1.45;;
29452;SDS011;16424;50.956;5.320;2023-09-18T07:30:54;5.68;;;1.23;;
29452;SDS011;16424;50.956;5.320;2023-09-18T07:33:19;4.72;;;1.58;;
29452;SDS011;16424;50.956;5.320;2023-09-18T07:35:48;11.63;;;1.25;;
29452;SDS011;16424;50.956;5.320;2023-09-18T07:38:16;5.72;;;1.00;;
29452;SDS011;16424;50.956;5.320;2023-09-18T07:40:44;3.95;;;1.35;;
29452;SDS011;16424;50.956;5.320;2023-09-18T07:43:10;3.00;;;1.13;;
29452;SDS011;16424;50.956;5.320;2023-09-18T07:45:39;4.88;;;1.10;;
29452;SDS011;16424;50.956;5.320;2023-09-18T07:48:05;3.75;;;1.35;;
29452;SDS011;16424;50.956;5.320;2023-09-18T07:50:32;2.95;;;1.23;;
29452;SDS011;16424;50.956;5.320;2023-09-18T07:52:59;3.25;;;1.13;;
29452;SDS011;16424;50.956;5.320;2023-09-18T07:55:25;6.93;;;1.20;;
29452;SDS011;16424;50.956;5.320;2023-09-18T07:57:51;3.95;;;1.40;;
29452;SDS011;16424;50.956;5.320;2023-09-18T08:00:17;3.15;;;1.52;;
29452;SDS011;16424;50.956;5.320;2023-09-18T08:02:43;5.28;;;1.35;;
29452;SDS011;16424;50.956;5.320;2023-09-18T08:05:09;1.63;;;0.85;;
29452;SDS011;16424;50.956;5.320;2023-09-18T08:07:36;4.80;;;1.08;;
29452;SDS011;16424;50.956;5.320;2023-09-18T08:10:02;2.10;;;0.98;;
29452;SDS011;16424;50.956;5.320;2023-09-18T08:12:33;3.35;;;1.60;;
29452;SDS011;16424;50.956;5.320;2023-09-18T08:14:59;7.05;;;1.38;;
29452;SDS011;16424;50.956;5.320;2023-09-18T08:17:25;8.10;;;1.75;;
29452;SDS011;16424;50.956;5.320;2023-09-18T08:19:51;3.63;;;1.30;;
29452;SDS011;16424;50.956;5.320;2023-09-18T08:22:18;3.35;;;1.15;;
29452;SDS011;16424;50.956;5.320;2023-09-18T08:24:46;4.93;;;1.40;;
29452;SDS011;16424;50.956;5.320;2023-09-18T08:27:13;3.67;;;1.00;;
29452;SDS011;16424;50.956;5.320;2023-09-18T08:29:42;1.58;;;0.98;;
29452;SDS011;16424;50.956;5.320;2023-09-18T08:32:08;2.78;;;1.17;;
29452;SDS011;16424;50.956;5.320;2023-09-18T08:34:34;1.83;;;0.93;;
29452;SDS011;16424;50.956;5.320;2023-09-18T08:37:00;3.55;;;1.10;;
29452;SDS011;16424;50.956;5.320;2023-09-18T08:39:27;5.68;;;1.10;;
29452;SDS011;16424;50.956;5.320;2023-09-18T08:41:54;2.58;;;1.40;;
29452;SDS011;16424;50.956;5.320;2023-09-18T08:44:26;2.00;;;1.00;;
29452;SDS011;16424;50.956;5.320;2023-09-18T08:46:53;2.67;;;1.27;;
29452;SDS011;16424;50.956;5.320;2023-09-18T08:49:21;4.03;;;1.00;;
29452;SDS011;16424;50.956;5.320;2023-09-18T08:51:49;5.60;;;1.10;;
29452;SDS011;16424;50.956;5.320;2023-09-18T08:54:20;2.47;;;0.80;;
29452;SDS011;16424;50.956;5.320;2023-09-18T08:56:50;1.95;;;0.90;;
29452;SDS011;16424;50.956;5.320;2023-09-18T08:59:16;2.55;;;1.05;;
29452;SDS011;16424;50.956;5.320;2023-09-18T09:01:44;2.13;;;0.98;;
29452;SDS011;16424;50.956;5.320;2023-09-18T09:04:10;3.60;;;1.13;;
29452;SDS011;16424;50.956;5.320;2023-09-18T09:06:36;3.83;;;1.10;;
29452;SDS011;16424;50.956;5.320;2023-09-18T09:09:02;4.63;;;1.20;;
29452;SDS011;16424;50.956;5.320;2023-09-18T09:11:28;3.63;;;1.17;;
29452;SDS011;16424;50.956;5.320;2023-09-18T09:14:08;3.00;;;1.10;;
29452;SDS011;16424;50.956;5.320;2023-09-18T09:16:46;4.28;;;1.35;;
29452;SDS011;16424;50.956;5.320;2023-09-18T09:19:13;3.50;;;1.10;;
29452;SDS011;16424;50.956;5.320;2023-09-18T09:21:41;5.55;;;1.25;;
29452;SDS011;16424;50.956;5.320;2023-09-18T09:24:08;3.95;;;1.17;;
29452;SDS011;16424;50.956;5.320;2023-09-18T09:26:40;2.72;;;1.10;;
29452;SDS011;16424;50.956;5.320;2023-09-18T09:29:17;5.95;;;1.20;;
29452;SDS011;16424;50.956;5.320;2023-09-18T09:31:45;3.20;;;1.00;;
29452;SDS011;16424;50.956;5.320;2023-09-18T09:34:12;2.17;;;1.20;;
29452;SDS011;16424;50.956;5.320;2023-09-18T09:36:52;3.22;;;1.40;;
29452;SDS011;16424;50.956;5.320;2023-09-18T09:39:19;3.08;;;1.27;;
29452;SDS011;16424;50.956;5.320;2023-09-18T09:41:48;4.38;;;1.70;;
29452;SDS011;16424;50.956;5.320;2023-09-18T09:44:14;5.25;;;1.70;;
29452;SDS011;16424;50.956;5.320;2023-09-18T09:46:49;5.15;;;1.17;;
29452;SDS011;16424;50.956;5.320;2023-09-18T09:49:16;2.55;;;1.45;;
29452;SDS011;16424;50.956;5.320;2023-09-18T09:51:44;4.60;;;1.00;;
29452;SDS011;16424;50.956;5.320;2023-09-18T09:54:11;3.53;;;1.52;;
29452;SDS011;16424;50.956;5.320;2023-09-18T09:56:44;3.83;;;1.23;;
29452;SDS011;16424;50.956;5.320;2023-09-18T09:59:19;4.15;;;1.50;;
29452;SDS011;16424;50.956;5.320;2023-09-18T10:01:48;3.83;;;1.20;;
29452;SDS011;16424;50.956;5.320;2023-09-18T10:04:16;4.15;;;1.33;;
29452;SDS011;16424;50.956;5.320;2023-09-18T10:06:44;4.18;;;1.60;;
29452;SDS011;16424;50.956;5.320;2023-09-18T10:09:19;2.75;;;1.38;;
29452;SDS011;16424;50.956;5.320;2023-09-18T10:11:46;4.22;;;1.98;;
29452;SDS011;16424;50.956;5.320;2023-09-18T10:14:21;4.50;;;1.45;;
29452;SDS011;16424;50.956;5.320;2023-09-18T10:16:56;3.55;;;1.70;;
29452;SDS011;16424;50.956;5.320;2023-09-18T10:19:33;3.10;;;1.23;;
29452;SDS011;16424;50.956;5.320;2023-09-18T10:24:54;2.42;;;1.27;;
29452;SDS011;16424;50.956;5.320;2023-09-18T10:27:25;5.47;;;1.50;;
29452;SDS011;16424;50.956;5.320;2023-09-18T10:29:53;4.78;;;1.58;;
29452;SDS011;16424;50.956;5.320;2023-09-18T10:32:20;5.32;;;1.40;;
29452;SDS011;16424;50.956;5.320;2023-09-18T10:34:47;7.80;;;1.60;;
29452;SDS011;16424;50.956;5.320;2023-09-18T10:37:14;9.38;;;1.60;;
29452;SDS011;16424;50.956;5.320;2023-09-18T10:39:41;4.90;;;1.48;;
29452;SDS011;16424;50.956;5.320;2023-09-18T10:42:09;3.92;;;1.50;;
29452;SDS011;16424;50.956;5.320;2023-09-18T10:44:35;4.85;;;1.70;;
29452;SDS011;16424;50.956;5.320;2023-09-18T10:47:02;3.97;;;1.67;;
29452;SDS011;16424;50.956;5.320;2023-09-18T10:49:33;1.30;;;1.20;;
29452;SDS011;16424;50.956;5.320;2023-09-18T10:52:00;3.03;;;1.40;;
29452;SDS011;16424;50.956;5.320;2023-09-18T10:54:26;2.90;;;1.58;;
29452;SDS011;16424;50.956;5.320;2023-09-18T10:56:53;5.50;;;1.58;;
29452;SDS011;16424;50.956;5.320;2023-09-18T10:59:22;3.58;;;1.77;;
29452;SDS011;16424;50.956;5.320;2023-09-18T11:01:48;2.17;;;1.40;;
29452;SDS011;16424;50.956;5.320;2023-09-18T11:04:17;2.65;;;1.50;;
29452;SDS011;16424;50.956;5.320;2023-09-18T11:17:31;5.88;;;1.65;;
29452;SDS011;16424;50.956;5.320;2023-09-18T11:20:05;6.18;;;1.67;;
29452;SDS011;16424;50.956;5.320;2023-09-18T11:22:40;3.72;;;1.70;;
29452;SDS011;16424;50.956;5.320;2023-09-18T11:28:06;5.32;;;1.83;;
29452;SDS011;16424;50.956;5.320;2023-09-18T11:30:36;7.10;;;1.67;;
29452;SDS011;16424;50.956;5.320;2023-09-18T11:33:04;4.32;;;1.95;;
29452;SDS011;16424;50.956;5.320;2023-09-18T11:35:31;3.10;;;1.70;;
29452;SDS011;16424;50.956;5.320;2023-09-18T11:38:08;2.47;;;1.00;;
29452;SDS011;16424;50.956;5.320;2023-09-18T11:40:36;3.08;;;1.63;;
29452;SDS011;16424;50.956;5.320;2023-09-18T11:45:52;5.35;;;1.73;;
29452;SDS011;16424;50.956;5.320;2023-09-18T11:48:53;2.45;;;1.20;;
29452;SDS011;16424;50.956;5.320;2023-09-18T11:51:20;2.85;;;1.17;;
29452;SDS011;16424;50.956;5.320;2023-09-18T11:53:48;4.60;;;1.48;;
29452;SDS011;16424;50.956;5.320;2023-09-18T11:56:18;3.83;;;2.20;;
29452;SDS011;16424;50.956;5.320;2023-09-18T11:58:49;5.78;;;1.30;;
29452;SDS011;16424;50.956;5.320;2023-09-18T12:01:18;3.28;;;1.00;;
29452;SDS011;16424;50.956;5.320;2023-09-18T12:03:44;3.47;;;1.40;;
29452;SDS011;16424;50.956;5.320;2023-09-18T12:06:10;3.47;;;1.25;;
29452;SDS011;16424;50.956;5.320;2023-09-18T12:08:38;10.35;;;1.48;;
29452;SDS011;16424;50.956;5.320;2023-09-18T12:11:06;2.25;;;1.27;;
29452;SDS011;16424;50.956;5.320;2023-09-18T12:13:32;6.65;;;1.50;;
29452;SDS011;16424;50.956;5.320;2023-09-18T12:15:58;4.50;;;1.35;;
29452;SDS011;16424;50.956;5.320;2023-09-18T12:18:26;5.75;;;1.67;;
29452;SDS011;16424;50.956;5.320;2023-09-18T12:20:54;3.58;;;2.15;;
29452;SDS011;16424;50.956;5.320;2023-09-18T12:23:21;3.90;;;1.35;;
29452;SDS011;16424;50.956;5.320;2023-09-18T12:25:48;3.25;;;1.52;;
29452;SDS011;16424;50.956;5.320;2023-09-18T12:28:17;6.53;;;1.80;;
29452;SDS011;16424;50.956;5.320;2023-09-18T12:30:43;5.82;;;1.33;;
29452;SDS011;16424;50.956;5.320;2023-09-18T12:33:11;4.00;;;1.38;;
29452;SDS011;16424;50.956;5.320;2023-09-18T12:35:40;5.22;;;1.40;;
29452;SDS011;16424;50.956;5.320;2023-09-18T12:38:15;4.40;;;1.17;;
29452;SDS011;16424;50.956;5.320;2023-09-18T12:40:49;4.90;;;1.30;;
29452;SDS011;16424;50.956;5.320;2023-09-18T12:43:15;2.67;;;1.20;;
29452;SDS011;16424;50.956;5.320;2023-09-18T12:45:44;3.22;;;1.50;;
29452;SDS011;16424;50.956;5.320;2023-09-18T12:48:12;4.43;;;1.15;;
29452;SDS011;16424;50.956;5.320;2023-09-18T12:50:38;2.67;;;1.20;;
29452;SDS011;16424;50.956;5.320;2023-09-18T12:55:37;2.47;;;1.00;;
29452;SDS011;16424;50.956;5.320;2023-09-18T12:58:04;3.92;;;1.27;;
29452;SDS011;16424;50.956;5.320;2023-09-18T13:00:33;4.68;;;1.58;;
29452;SDS011;16424;50.956;5.320;2023-09-18T13:02:59;4.32;;;1.40;;
29452;SDS011;16424;50.956;5.320;2023-09-18T13:05:25;2.25;;;1.20;;
29452;SDS011;16424;50.956;5.320;2023-09-18T13:07:51;5.63;;;1.48;;
29452;SDS011;16424;50.956;5.320;2023-09-18T13:10:18;4.57;;;1.27;;
29452;SDS011;16424;50.956;5.320;2023-09-18T13:15:27;5.30;;;1.30;;
29452;SDS011;16424;50.956;5.320;2023-09-18T13:17:54;6.65;;;1.30;;
29452;SDS011;16424;50.956;5.320;2023-09-18T13:20:21;6.57;;;1.48;;
29452;SDS011;16424;50.956;5.320;2023-09-18T13:22:54;3.55;;;1.10;;
29452;SDS011;16424;50.956;5.320;2023-09-18T13:25:21;3.85;;;1.13;;
29452;SDS011;16424;50.956;5.320;2023-09-18T13:27:53;1.75;;;1.05;;
29452;SDS011;16424;50.956;5.320;2023-09-18T13:30:19;2.40;;;1.20;;
29452;SDS011;16424;50.956;5.320;2023-09-18T13:32:47;1.88;;;1.08;;
29452;SDS011;16424;50.956;5.320;2023-09-18T13:35:15;2.95;;;1.23;;
29452;SDS011;16424;50.956;5.320;2023-09-18T13:37:41;3.53;;;1.20;;
29452;SDS011;16424;50.956;5.320;2023-09-18T13:40:08;2.10;;;1.00;;
29452;SDS011;16424;50.956;5.320;2023-09-18T13:42:35;8.15;;;1.52;;
29452;SDS011;16424;50.956;5.320;2023-09-18T13:45:02;2.47;;;1.67;;
29452;SDS011;16424;50.956;5.320;2023-09-18T13:47:29;3.13;;;1.20;;
29452;SDS011;16424;50.956;5.320;2023-09-18T13:49:55;2.92;;;1.33;;
29452;SDS011;16424;50.956;5.320;2023-09-18T13:52:31;1.83;;;1.00;;
29452;SDS011;16424;50.956;5.320;2023-09-18T13:54:58;4.22;;;1.27;;
29452;SDS011;16424;50.956;5.320;2023-09-18T13:57:24;4.35;;;1.40;;
29452;SDS011;16424;50.956;5.320;2023-09-18T13:59:50;2.78;;;1.42;;
29452;SDS011;16424;50.956;5.320;2023-09-18T14:02:17;4.55;;;1.42;;
29452;SDS011;16424;50.956;5.320;2023-09-18T14:04:43;4.28;;;1.13;;
29452;SDS011;16424;50.956;5.320;2023-09-18T14:07:10;3.08;;;1.27;;
29452;SDS011;16424;50.956;5.320;2023-09-18T14:09:37;2.90;;;1.15;;
29452;SDS011;16424;50.956;5.320;2023-09-18T14:12:03;2.60;;;0.90;;
29452;SDS011;16424;50.956;5.320;2023-09-18T14:14:32;3.30;;;1.23;;
29452;SDS011;16424;50.956;5.320;2023-09-18T14:16:58;3.45;;;1.00;;
29452;SDS011;16424;50.956;5.320;2023-09-18T14:19:24;1.17;;;0.90;;
29452;SDS011;16424;50.956;5.320;2023-09-18T14:21:50;4.05;;;1.27;;
29452;SDS011;16424;50.956;5.320;2023-09-18T14:24:17;3.90;;;1.20;;
29452;SDS011;16424;50.956;5.320;2023-09-18T14:26:47;9.02;;;1.20;;
29452;SDS011;16424;50.956;5.320;2023-09-18T14:29:14;3.92;;;1.52;;
29452;SDS011;16424;50.956;5.320;2023-09-18T14:31:40;2.22;;;0.90;;
29452;SDS011;16424;50.956;5.320;2023-09-18T14:34:05;4.03;;;1.10;;
29452;SDS011;16424;50.956;5.320;2023-09-18T14:36:31;4.18;;;1.40;;
29452;SDS011;16424;50.956;5.320;2023-09-18T14:39:01;3.13;;;1.15;;
29452;SDS011;16424;50.956;5.320;2023-09-18T14:41:27;4.28;;;2.05;;
29452;SDS011;16424;50.956;5.320;2023-09-18T14:43:53;4.00;;;1.00;;
29452;SDS011;16424;50.956;5.320;2023-09-18T14:46:19;4.07;;;1.00;;
29452;SDS011;16424;50.956;5.320;2023-09-18T14:48:46;2.08;;;1.00;;
29452;SDS011;16424;50.956;5.320;2023-09-18T14:51:11;6.88;;;1.23;;
29452;SDS011;16424;50.956;5.320;2023-09-18T14:53:37;3.10;;;0.90;;
29452;SDS011;16424;50.956;5.320;2023-09-18T14:56:03;2.60;;;1.23;;
29452;SDS011;16424;50.956;5.320;2023-09-18T14:58:29;3.47;;;0.98;;
29452;SDS011;16424;50.956;5.320;2023-09-18T15:00:56;3.38;;;1.13;;
29452;SDS011;16424;50.956;5.320;2023-09-18T15:03:22;4.25;;;1.38;;
29452;SDS011;16424;50.956;5.320;2023-09-18T15:05:52;2.55;;;1.00;;
29452;SDS011;16424;50.956;5.320;2023-09-18T15:08:18;6.00;;;1.02;;
29452;SDS011;16424;50.956;5.320;2023-09-18T15:10:47;1.80;;;0.95;;
29452;SDS011;16424;50.956;5.320;2023-09-18T15:13:13;2.90;;;1.27;;
29452;SDS011;16424;50.956;5.320;2023-09-18T15:15:39;3.92;;;1.00;;
29452;SDS011;16424;50.956;5.320;2023-09-18T15:18:06;3.55;;;1.42;;